Airfield :
LOGIN :

Register | Disclaimer

   EN    FR    IT 

 










Legend :    VFR   Marginal VFR   IFR   Intensive IFR   Very Intensive IFR
Visi :
Ceiling :
>= 8 km
>= 3000ft
5 to 8 km
1000 to 3000 ft
1500m to 5 km
500 to 1000 ft
800 to 1500m
200 to 500 ft
< 800m
< 200 ft
Symbols :   Thunderstorms  Fog  Heavy snow  Heavy precipitations  Wind > 20 kt
SIGMETs :     Misc.  Thunderstorms  Icing  Turbulence  Mountain Waves  Volcanic Ashes







- Airport Elevation : 62 ft
- IATA code : TAN


GMTT - Tanger Ibn Batouta

CURRENT METAR :
  • 181730Z 13005KT 8000 -RA SCT013 BKN016 FEW026TCU 15/12 Q1008 NOSIG

EXPIRED METARs :
  • 181700Z 19005KT 140V250 8000 SCT013 BKN016 FEW026TCU 14/11 Q1008 NOSIG
  • 181630Z 23004KT 190V270 5000 -RA SCT013 BKN016 FEW026TCU 16/12 Q1009 NOSIG
  • 181600Z 31008KT 8000 SCT013 BKN016 FEW026TCU 15/12 Q1008 NOSIG
  • 181530Z 23015KT 5000 -TSRA SCT008 BKN016 FEW026CB 16/12 Q1008 NOSIG
  • 181500Z 23012KT 9999 BKN016 SCT100 20/13 Q1008 NOSIG

TAF TAF GMTT
Valid from the 18 at 18:00 until the 20 at 00:00 UTC


181700Z 1818/1924 16008KT 8000 BKN016 SCT100
PROB40
TEMPO 1818/1824 3000 SHRA SCT008 BKN016 FEW023TCU
BECMG 1906/1910 09012KT
PROB40
TEMPO 1912/1918 4000 RA SCT008 BKN015
No reported NOTAMs for that airfield.
1 SIGMET reported for the Casablanca FIR (GMMM) :
 
Embedded thunderstorms
GMMM SIGMET 06 VALID 181730/182130 GMMC
GMMM CASABLANCA FIR EMBD TS OBS N OF LINE N3512 W00318 - N3321 W0054 9 - N3245 W00905 - N3427 W01158 TOP FL280 MOV E NC=



MET'MAP, your aeronautical weather chart ! - Copyright ORBIFLY December 2007 - Disclaimer

ORBIFLY MET'MAP TEAM :

Programming & Development : Alexandra Zaïnal
Concept & Development : Baudouin d'Aumeries
Co-Development & Prog : Marc-Olivier Méhu
Technical & hardware support : Manuel Goepfert

Contact : metmap@orbifly.com




SOURCES & CREDITS :

   NOAA